aviador You're here:

KBVO Decoded Metar

BARTLESVILLE in OK, USA
Report Time2018-07-22 13:53:00
UTC Time2018-07-22 14:17:38
Flight Rules vfr VFR
Wind020° at 05 kt
W.Decomp.*RWY 35: 4.6 kt HW 2.0 kt RCW
W.Rank020° ranks 9
Current wind is below 020° avg. (8.6)
Visibility9999 m
Phenomena:N/A
Clouds:N/A
Expected CloudBase > 1,600 ft AGL from Temp-Dew spread
CeilingNone
Temp23°C (ISA +9)
Dew Point19°C (78% RH)
QNH1016 hPa
Density Alt1,969 ft
Elevation689 ft
Report Wrong Elevation
Raw Report
KBVO 221353Z AUTO 02005KT 10SM CLR 23/19 A3000 RMK AO2 SLP150
T02330194=

Extra information for KBVO:More info

Metar Taf Metar & Taf Last 4 Metars F.Rules Stats Wind Profile Meteogram Temp Stats Airport Information Weather charts Add Link Nearby VenuesMetar ALERT Operation Metar Decoded Social comments

AIRNAV info for KBVO